PWSweather.com
Personal Weather Stations
Station Observations
KTXROWLE6
Ravens Nest, Rowlett, TX 75089

Ravens NestRowlett, TX 75089

Lat: 32.93105, Lon: -96.57368

Elevation: 556

Station Type: Davis Vantage Pro2 6152

http://rowlett.ws

High Low Average
Temperature 60.7°F15.9°C 39.2°F4.0°C 49.4°F9.7°C
Dew Point 33.8°F1.0°C 19.8°F-6.8°C 28.8°F-1.8°C
Winds 6.6 mph 10.6 kmh Calm Calm 2.0 mph S3.2 kmh S
Wind Gusts 12.0 mph19.3 kmh -- 5.0 mph8.0 kmh
Humidity 63% 21% 46%
Pressure 30.37 in1028.4 mb 30.19 in1022.4 mb -
Precipitation 0.00 in0.0 mm - -
Hour Temp Dew Point Humidity Winds Wind Gusts Pressure Precip Precip Rate Daily Precip Total
12:00 AM 43.8°F6.6°C 23.9°F-4.5°C 45% 0.7 mph ENE1.1 kmh ENE 3.0 mph4.8 kmh 30.32 in1026.8 mb 0.00 in0.0 mm 0.00 in0.0 mm 0.00 in0.0 mm
12:05 AM 43.8°F6.6°C 23.9°F-4.5°C 45% 0.9 mph ENE1.4 kmh ENE 3.0 mph4.8 kmh 30.32 in1026.8 mb 0.00 in0.0 mm 0.00 in0.0 mm 0.00 in0.0 mm
12:10 AM 43.6°F6.4°C 24.2°F-4.3°C 46% 0.4 mph ENE0.6 kmh ENE 3.0 mph4.8 kmh 30.32 in1026.8 mb 0.00 in0.0 mm 0.00 in0.0 mm 0.00 in0.0 mm
12:15 AM 43.3°F6.3°C 23.9°F-4.5°C 46% 0.1 mph ENE0.2 kmh ENE 2.0 mph3.2 kmh 30.32 in1026.8 mb 0.00 in0.0 mm 0.00 in0.0 mm 0.00 in0.0 mm
12:20 AM 43.1°F6.2°C 24.3°F-4.3°C 47% 0.3 mph ENE0.5 kmh ENE 2.0 mph3.2 kmh 30.32 in1026.8 mb 0.00 in0.0 mm 0.00 in0.0 mm 0.00 in0.0 mm
12:25 AM 42.8°F6.0°C 24.0°F-4.4°C 47% Calm Calm 2.0 mph3.2 kmh 30.32 in1026.8 mb 0.00 in0.0 mm 0.00 in0.0 mm 0.00 in0.0 mm
12:30 AM 42.8°F6.0°C 24.0°F-4.4°C 47% Calm Calm 1.0 mph1.6 kmh 30.32 in1026.8 mb 0.00 in0.0 mm 0.00 in0.0 mm 0.00 in0.0 mm
12:35 AM 42.7°F5.9°C 24.4°F-4.2°C 48% Calm Calm 1.0 mph1.6 kmh 30.32 in1026.8 mb 0.00 in0.0 mm 0.00 in0.0 mm 0.00 in0.0 mm
12:40 AM 42.4°F5.8°C 24.6°F-4.1°C 49% Calm Calm 1.0 mph1.6 kmh 30.32 in1026.8 mb 0.00 in0.0 mm 0.00 in0.0 mm 0.00 in0.0 mm
12:45 AM 42.2°F5.7°C 24.9°F-3.9°C 50% Calm Calm 1.0 mph1.6 kmh 30.32 in1026.8 mb 0.00 in0.0 mm 0.00 in0.0 mm 0.00 in0.0 mm
12:50 AM 42.1°F5.6°C 24.8°F-4.0°C 50% Calm Calm 1.0 mph1.6 kmh 30.32 in1026.8 mb 0.00 in0.0 mm 0.00 in0.0 mm 0.00 in0.0 mm
12:55 AM 42.1°F5.6°C 24.8°F-4.0°C 50% Calm Calm 1.0 mph1.6 kmh 30.32 in1026.8 mb 0.00 in0.0 mm 0.00 in0.0 mm 0.00 in0.0 mm
01:00 AM 42.0°F5.6°C 24.7°F-4.1°C 50% 0.1 mph ENE0.2 kmh ENE 1.0 mph1.6 kmh 30.32 in1026.8 mb 0.00 in0.0 mm 0.00 in0.0 mm 0.00 in0.0 mm
01:05 AM 42.2°F5.7°C 24.9°F-3.9°C 50% Calm Calm 1.0 mph1.6 kmh 30.32 in1026.8 mb 0.00 in0.0 mm 0.00 in0.0 mm 0.00 in0.0 mm
01:10 AM 42.3°F5.7°C 25.0°F-3.9°C 50% 0.2 mph ENE0.3 kmh ENE 2.0 mph3.2 kmh 30.32 in1026.8 mb 0.00 in0.0 mm 0.00 in0.0 mm 0.00 in0.0 mm
01:15 AM 42.2°F5.7°C 24.9°F-3.9°C 50% Calm Calm 2.0 mph3.2 kmh 30.32 in1026.8 mb 0.00 in0.0 mm 0.00 in0.0 mm 0.00 in0.0 mm
01:20 AM 42.2°F5.7°C 25.4°F-3.7°C 51% Calm Calm 1.0 mph1.6 kmh 30.32 in1026.8 mb 0.00 in0.0 mm 0.00 in0.0 mm 0.00 in0.0 mm
01:25 AM 42.2°F5.7°C 25.4°F-3.7°C 51% Calm Calm 1.0 mph1.6 kmh 30.32 in1026.8 mb 0.00 in0.0 mm 0.00 in0.0 mm 0.00 in0.0 mm
01:30 AM 41.9°F5.5°C 25.1°F-3.8°C 51% Calm Calm 1.0 mph1.6 kmh 30.32 in1026.8 mb 0.00 in0.0 mm 0.00 in0.0 mm 0.00 in0.0 mm
01:35 AM 42.1°F5.6°C 25.3°F-3.7°C 51% 0.2 mph ENE0.3 kmh ENE 2.0 mph3.2 kmh 30.32 in1026.8 mb 0.00 in0.0 mm 0.00 in0.0 mm 0.00 in0.0 mm
01:40 AM 42.2°F5.7°C 25.9°F-3.4°C 52% 0.1 mph ENE0.2 kmh ENE 2.0 mph3.2 kmh 30.32 in1026.8 mb 0.00 in0.0 mm 0.00 in0.0 mm 0.00 in0.0 mm
01:45 AM 42.1°F5.6°C 25.3°F-3.7°C 51% 0.1 mph ENE0.2 kmh ENE 1.0 mph1.6 kmh 30.32 in1026.8 mb 0.00 in0.0 mm 0.00 in0.0 mm 0.00 in0.0 mm
01:50 AM 42.0°F5.6°C 25.7°F-3.5°C 52% 0.4 mph ENE0.6 kmh ENE 2.0 mph3.2 kmh 30.32 in1026.8 mb 0.00 in0.0 mm 0.00 in0.0 mm 0.00 in0.0 mm
01:55 AM 42.0°F5.6°C 25.7°F-3.5°C 52% 0.5 mph ENE0.8 kmh ENE 2.0 mph3.2 kmh 30.32 in1026.8 mb 0.00 in0.0 mm 0.00 in0.0 mm 0.00 in0.0 mm
02:00 AM 42.0°F5.6°C 25.7°F-3.5°C 52% 0.3 mph ENE0.5 kmh ENE 2.0 mph3.2 kmh 30.32 in1026.8 mb 0.00 in0.0 mm 0.00 in0.0 mm 0.00 in0.0 mm
02:05 AM 42.1°F5.6°C 25.3°F-3.7°C 51% 0.8 mph ENE1.3 kmh ENE 2.0 mph3.2 kmh 30.32 in1026.8 mb 0.00 in0.0 mm 0.00 in0.0 mm 0.00 in0.0 mm
02:10 AM 42.3°F5.7°C 25.5°F-3.6°C 51% 0.7 mph ENE1.1 kmh ENE 2.0 mph3.2 kmh 30.32 in1026.8 mb 0.00 in0.0 mm 0.00 in0.0 mm 0.00 in0.0 mm
02:15 AM 42.2°F5.7°C 25.4°F-3.7°C 51% 0.6 mph ENE1.0 kmh ENE 2.0 mph3.2 kmh 30.32 in1026.8 mb 0.00 in0.0 mm 0.00 in0.0 mm 0.00 in0.0 mm
02:20 AM 42.3°F5.7°C 25.5°F-3.6°C 51% 1.1 mph ENE1.8 kmh ENE 2.0 mph3.2 kmh 30.32 in1026.8 mb 0.00 in0.0 mm 0.00 in0.0 mm 0.00 in0.0 mm
02:25 AM 42.3°F5.7°C 25.5°F-3.6°C 51% 1.0 mph ENE1.6 kmh ENE 3.0 mph4.8 kmh 30.32 in1026.8 mb 0.00 in0.0 mm 0.00 in0.0 mm 0.00 in0.0 mm
02:30 AM 42.3°F5.7°C 25.5°F-3.6°C 51% 1.4 mph ENE2.3 kmh ENE 3.0 mph4.8 kmh 30.32 in1026.8 mb 0.00 in0.0 mm 0.00 in0.0 mm 0.00 in0.0 mm
02:35 AM 42.2°F5.7°C 24.9°F-3.9°C 50% 1.5 mph ENE2.4 kmh ENE 3.0 mph4.8 kmh 30.32 in1026.8 mb 0.00 in0.0 mm 0.00 in0.0 mm 0.00 in0.0 mm
02:40 AM 42.3°F5.7°C 25.0°F-3.9°C 50% 1.5 mph ENE2.4 kmh ENE 3.0 mph4.8 kmh 30.32 in1026.8 mb 0.00 in0.0 mm 0.00 in0.0 mm 0.00 in0.0 mm
02:45 AM 42.1°F5.6°C 25.3°F-3.7°C 51% 0.9 mph ENE1.4 kmh ENE 3.0 mph4.8 kmh 30.32 in1026.8 mb 0.00 in0.0 mm 0.00 in0.0 mm 0.00 in0.0 mm
02:50 AM 42.0°F5.6°C 25.2°F-3.8°C 51% 1.1 mph ENE1.8 kmh ENE 3.0 mph4.8 kmh 30.32 in1026.8 mb 0.00 in0.0 mm 0.00 in0.0 mm 0.00 in0.0 mm
02:55 AM 41.9°F5.5°C 25.1°F-3.8°C 51% 1.2 mph ENE1.9 kmh ENE 3.0 mph4.8 kmh 30.32 in1026.8 mb 0.00 in0.0 mm 0.00 in0.0 mm 0.00 in0.0 mm
03:00 AM 41.5°F5.3°C 25.2°F-3.8°C 52% 1.6 mph ENE2.6 kmh ENE 3.0 mph4.8 kmh 30.32 in1026.8 mb 0.00 in0.0 mm 0.00 in0.0 mm 0.00 in0.0 mm
03:05 AM 41.4°F5.2°C 25.6°F-3.6°C 53% 0.7 mph ENE1.1 kmh ENE 3.0 mph4.8 kmh 30.32 in1026.8 mb 0.00 in0.0 mm 0.00 in0.0 mm 0.00 in0.0 mm
03:10 AM 41.1°F5.1°C 25.7°F-3.5°C 54% 1.3 mph ENE2.1 kmh ENE 2.0 mph3.2 kmh 30.32 in1026.8 mb 0.00 in0.0 mm 0.00 in0.0 mm 0.00 in0.0 mm
03:15 AM 40.9°F4.9°C 25.1°F-3.8°C 53% 0.9 mph ENE1.4 kmh ENE 3.0 mph4.8 kmh 30.32 in1026.8 mb 0.00 in0.0 mm 0.00 in0.0 mm 0.00 in0.0 mm
03:20 AM 40.8°F4.9°C 25.5°F-3.6°C 54% 1.3 mph ENE2.1 kmh ENE 3.0 mph4.8 kmh 30.32 in1026.8 mb 0.00 in0.0 mm 0.00 in0.0 mm 0.00 in0.0 mm
03:25 AM 40.7°F4.8°C 25.4°F-3.7°C 54% 1.2 mph ENE1.9 kmh ENE 3.0 mph4.8 kmh 30.32 in1026.8 mb 0.00 in0.0 mm 0.00 in0.0 mm 0.00 in0.0 mm
03:30 AM 40.8°F4.9°C 25.5°F-3.6°C 54% 1.6 mph NNE2.6 kmh NNE 3.0 mph4.8 kmh 30.32 in1026.8 mb 0.00 in0.0 mm 0.00 in0.0 mm 0.00 in0.0 mm
03:35 AM 40.6°F4.8°C 25.3°F-3.7°C 54% 0.9 mph N1.4 kmh N 3.0 mph4.8 kmh 30.31 in1026.4 mb 0.00 in0.0 mm 0.00 in0.0 mm 0.00 in0.0 mm
03:40 AM 40.5°F4.7°C 25.2°F-3.8°C 54% 1.0 mph N1.6 kmh N 3.0 mph4.8 kmh 30.32 in1026.8 mb 0.00 in0.0 mm 0.00 in0.0 mm 0.00 in0.0 mm
03:45 AM 40.2°F4.6°C 25.3°F-3.7°C 55% 1.5 mph N2.4 kmh N 3.0 mph4.8 kmh 30.32 in1026.8 mb 0.00 in0.0 mm 0.00 in0.0 mm 0.00 in0.0 mm
03:50 AM 40.0°F4.4°C 25.6°F-3.6°C 56% 1.2 mph N1.9 kmh N 3.0 mph4.8 kmh 30.32 in1026.8 mb 0.00 in0.0 mm 0.00 in0.0 mm 0.00 in0.0 mm
03:55 AM 40.1°F4.5°C 25.2°F-3.8°C 55% 1.1 mph N1.8 kmh N 2.0 mph3.2 kmh 30.32 in1026.8 mb 0.00 in0.0 mm 0.00 in0.0 mm 0.00 in0.0 mm
04:00 AM 40.1°F4.5°C 24.8°F-4.0°C 54% 0.8 mph N1.3 kmh N 2.0 mph3.2 kmh 30.32 in1026.8 mb 0.00 in0.0 mm 0.00 in0.0 mm 0.00 in0.0 mm
04:05 AM 40.0°F4.4°C 25.2°F-3.8°C 55% 1.2 mph N1.9 kmh N 3.0 mph4.8 kmh 30.31 in1026.4 mb 0.00 in0.0 mm 0.00 in0.0 mm 0.00 in0.0 mm
04:10 AM 39.9°F4.4°C 25.1°F-3.8°C 55% 1.4 mph N2.3 kmh N 3.0 mph4.8 kmh 30.31 in1026.4 mb 0.00 in0.0 mm 0.00 in0.0 mm 0.00 in0.0 mm
04:15 AM 39.6°F4.2°C 25.2°F-3.8°C 56% 1.0 mph N1.6 kmh N 3.0 mph4.8 kmh 30.32 in1026.8 mb 0.00 in0.0 mm 0.00 in0.0 mm 0.00 in0.0 mm
04:20 AM 39.3°F4.1°C 25.4°F-3.7°C 57% 1.2 mph N1.9 kmh N 2.0 mph3.2 kmh 30.31 in1026.4 mb 0.00 in0.0 mm 0.00 in0.0 mm 0.00 in0.0 mm
04:25 AM 39.3°F4.1°C 24.9°F-3.9°C 56% 1.3 mph N2.1 kmh N 2.0 mph3.2 kmh 30.31 in1026.4 mb 0.00 in0.0 mm 0.00 in0.0 mm 0.00 in0.0 mm
04:30 AM 39.2°F4.0°C 24.8°F-4.0°C 56% 1.0 mph N1.6 kmh N 2.0 mph3.2 kmh 30.31 in1026.4 mb 0.00 in0.0 mm 0.00 in0.0 mm 0.00 in0.0 mm
04:35 AM 39.2°F4.0°C 24.8°F-4.0°C 56% 1.2 mph N1.9 kmh N 2.0 mph3.2 kmh 30.32 in1026.8 mb 0.00 in0.0 mm 0.00 in0.0 mm 0.00 in0.0 mm
04:40 AM 39.3°F4.1°C 24.9°F-3.9°C 56% 0.9 mph N1.4 kmh N 2.0 mph3.2 kmh 30.32 in1026.8 mb 0.00 in0.0 mm 0.00 in0.0 mm 0.00 in0.0 mm
04:45 AM 39.4°F4.1°C 25.0°F-3.9°C 56% 0.5 mph N0.8 kmh N 2.0 mph3.2 kmh 30.31 in1026.4 mb 0.00 in0.0 mm 0.00 in0.0 mm 0.00 in0.0 mm
04:50 AM 39.6°F4.2°C 25.2°F-3.8°C 56% 0.5 mph N0.8 kmh N 2.0 mph3.2 kmh 30.31 in1026.4 mb 0.00 in0.0 mm 0.00 in0.0 mm 0.00 in0.0 mm
04:55 AM 39.7°F4.3°C 25.3°F-3.7°C 56% 1.1 mph N1.8 kmh N 2.0 mph3.2 kmh 30.31 in1026.4 mb 0.00 in0.0 mm 0.00 in0.0 mm 0.00 in0.0 mm
05:00 AM 39.8°F4.3°C 25.0°F-3.9°C 55% 0.9 mph NNE1.4 kmh NNE 2.0 mph3.2 kmh 30.32 in1026.8 mb 0.00 in0.0 mm 0.00 in0.0 mm 0.00 in0.0 mm
05:05 AM 39.9°F4.4°C 25.1°F-3.8°C 55% 0.9 mph NE1.4 kmh NE 2.0 mph3.2 kmh 30.32 in1026.8 mb 0.00 in0.0 mm 0.00 in0.0 mm 0.00 in0.0 mm
05:10 AM 39.9°F4.4°C 25.5°F-3.6°C 56% 0.3 mph ENE0.5 kmh ENE 2.0 mph3.2 kmh 30.31 in1026.4 mb 0.00 in0.0 mm 0.00 in0.0 mm 0.00 in0.0 mm
05:15 AM 39.8°F4.3°C 25.4°F-3.7°C 56% 0.3 mph ENE0.5 kmh ENE 2.0 mph3.2 kmh 30.31 in1026.4 mb 0.00 in0.0 mm 0.00 in0.0 mm 0.00 in0.0 mm
05:20 AM 39.8°F4.3°C 25.8°F-3.4°C 57% Calm Calm 2.0 mph3.2 kmh 30.31 in1026.4 mb 0.00 in0.0 mm 0.00 in0.0 mm 0.00 in0.0 mm
05:25 AM 39.8°F4.3°C 25.8°F-3.4°C 57% Calm Calm 1.0 mph1.6 kmh 30.31 in1026.4 mb 0.00 in0.0 mm 0.00 in0.0 mm 0.00 in0.0 mm
05:30 AM 39.9°F4.4°C 25.9°F-3.4°C 57% Calm Calm -- 30.31 in1026.4 mb 0.00 in0.0 mm 0.00 in0.0 mm 0.00 in0.0 mm
05:35 AM 40.0°F4.4°C 26.4°F-3.1°C 58% Calm Calm -- 30.31 in1026.4 mb 0.00 in0.0 mm 0.00 in0.0 mm 0.00 in0.0 mm
05:40 AM 40.0°F4.4°C 26.8°F-2.9°C 59% Calm Calm -- 30.31 in1026.4 mb 0.00 in0.0 mm 0.00 in0.0 mm 0.00 in0.0 mm
05:45 AM 40.1°F4.5°C 26.9°F-2.8°C 59% 0.1 mph ENE0.2 kmh ENE 1.0 mph1.6 kmh 30.31 in1026.4 mb 0.00 in0.0 mm 0.00 in0.0 mm 0.00 in0.0 mm
05:50 AM 40.3°F4.6°C 27.5°F-2.5°C 60% Calm Calm 1.0 mph1.6 kmh 30.31 in1026.4 mb 0.00 in0.0 mm 0.00 in0.0 mm 0.00 in0.0 mm
05:55 AM 40.4°F4.7°C 27.2°F-2.7°C 59% Calm Calm -- 30.31 in1026.4 mb 0.00 in0.0 mm 0.00 in0.0 mm 0.00 in0.0 mm
06:00 AM 40.7°F4.8°C 27.5°F-2.5°C 59% 0.2 mph ENE0.3 kmh ENE 1.0 mph1.6 kmh 30.32 in1026.8 mb 0.00 in0.0 mm 0.00 in0.0 mm 0.00 in0.0 mm
06:05 AM 40.8°F4.9°C 27.6°F-2.4°C 59% 0.6 mph ENE1.0 kmh ENE 2.0 mph3.2 kmh 30.31 in1026.4 mb 0.00 in0.0 mm 0.00 in0.0 mm 0.00 in0.0 mm
06:10 AM 40.8°F4.9°C 27.6°F-2.4°C 59% Calm Calm 2.0 mph3.2 kmh 30.31 in1026.4 mb 0.00 in0.0 mm 0.00 in0.0 mm 0.00 in0.0 mm
06:15 AM 40.9°F4.9°C 27.7°F-2.4°C 59% Calm Calm 1.0 mph1.6 kmh 30.31 in1026.4 mb 0.00 in0.0 mm 0.00 in0.0 mm 0.00 in0.0 mm
06:20 AM 40.9°F4.9°C 27.7°F-2.4°C 59% Calm Calm -- 30.31 in1026.4 mb 0.00 in0.0 mm 0.00 in0.0 mm 0.00 in0.0 mm
06:25 AM 41.0°F5.0°C 27.8°F-2.3°C 59% 0.1 mph ENE0.2 kmh ENE 1.0 mph1.6 kmh 30.31 in1026.4 mb 0.00 in0.0 mm 0.00 in0.0 mm 0.00 in0.0 mm
06:30 AM 41.1°F5.1°C 27.9°F-2.3°C 59% Calm Calm 1.0 mph1.6 kmh 30.31 in1026.4 mb 0.00 in0.0 mm 0.00 in0.0 mm 0.00 in0.0 mm
06:35 AM 41.3°F5.2°C 28.1°F-2.2°C 59% Calm Calm -- 30.32 in1026.8 mb 0.00 in0.0 mm 0.00 in0.0 mm 0.00 in0.0 mm
06:40 AM 41.5°F5.3°C 28.3°F-2.1°C 59% Calm Calm -- 30.32 in1026.8 mb 0.00 in0.0 mm 0.00 in0.0 mm 0.00 in0.0 mm
06:45 AM 41.6°F5.3°C 28.3°F-2.1°C 59% Calm Calm -- 30.32 in1026.8 mb 0.00 in0.0 mm 0.00 in0.0 mm 0.00 in0.0 mm
06:50 AM 41.7°F5.4°C 28.9°F-1.7°C 60% Calm Calm -- 30.32 in1026.8 mb 0.00 in0.0 mm 0.00 in0.0 mm 0.00 in0.0 mm
06:55 AM 41.8°F5.4°C 28.9°F-1.7°C 60% Calm Calm -- 30.32 in1026.8 mb 0.00 in0.0 mm 0.00 in0.0 mm 0.00 in0.0 mm
07:00 AM 41.8°F5.4°C 28.5°F-1.9°C 59% Calm Calm -- 30.33 in1027.1 mb 0.00 in0.0 mm 0.00 in0.0 mm 0.00 in0.0 mm
07:05 AM 42.0°F5.6°C 28.7°F-1.8°C 59% Calm Calm -- 30.33 in1027.1 mb 0.00 in0.0 mm 0.00 in0.0 mm 0.00 in0.0 mm
07:10 AM 42.0°F5.6°C 29.1°F-1.6°C 60% 0.1 mph ENE0.2 kmh ENE 1.0 mph1.6 kmh 30.33 in1027.1 mb 0.00 in0.0 mm 0.00 in0.0 mm 0.00 in0.0 mm
07:15 AM 42.1°F5.6°C 29.2°F-1.6°C 60% Calm Calm 1.0 mph1.6 kmh 30.34 in1027.4 mb 0.00 in0.0 mm 0.00 in0.0 mm 0.00 in0.0 mm
07:20 AM 42.2°F5.7°C 28.9°F-1.7°C 59% Calm Calm -- 30.34 in1027.4 mb 0.00 in0.0 mm 0.00 in0.0 mm 0.00 in0.0 mm
07:25 AM 42.3°F5.7°C 29.0°F-1.7°C 59% 0.3 mph ENE0.5 kmh ENE 1.0 mph1.6 kmh 30.34 in1027.4 mb 0.00 in0.0 mm 0.00 in0.0 mm 0.00 in0.0 mm
07:30 AM 42.5°F5.8°C 29.2°F-1.6°C 59% 0.6 mph ENE1.0 kmh ENE 2.0 mph3.2 kmh 30.35 in1027.8 mb 0.00 in0.0 mm 0.00 in0.0 mm 0.00 in0.0 mm
07:35 AM 42.4°F5.8°C 29.5°F-1.4°C 60% Calm Calm 2.0 mph3.2 kmh 30.35 in1027.8 mb 0.00 in0.0 mm 0.00 in0.0 mm 0.00 in0.0 mm
07:40 AM 42.5°F5.8°C 29.6°F-1.3°C 60% 1.0 mph ENE1.6 kmh ENE 2.0 mph3.2 kmh 30.35 in1027.8 mb 0.00 in0.0 mm 0.00 in0.0 mm 0.00 in0.0 mm
07:45 AM 42.6°F5.9°C 29.7°F-1.3°C 60% 2.0 mph NE3.2 kmh NE 3.0 mph4.8 kmh 30.35 in1027.8 mb 0.00 in0.0 mm 0.00 in0.0 mm 0.00 in0.0 mm
07:50 AM 42.6°F5.9°C 29.7°F-1.3°C 60% 1.6 mph NE2.6 kmh NE 3.0 mph4.8 kmh 30.36 in1028.1 mb 0.00 in0.0 mm 0.00 in0.0 mm 0.00 in0.0 mm
07:55 AM 42.4°F5.8°C 30.7°F-0.7°C 63% 2.1 mph N3.4 kmh N 4.0 mph6.4 kmh 30.36 in1028.1 mb 0.00 in0.0 mm 0.00 in0.0 mm 0.00 in0.0 mm
08:00 AM 42.2°F5.7°C 30.5°F-0.8°C 63% 1.4 mph N2.3 kmh N 4.0 mph6.4 kmh 30.37 in1028.4 mb 0.00 in0.0 mm 0.00 in0.0 mm 0.00 in0.0 mm
08:05 AM 42.2°F5.7°C 30.1°F-1.1°C 62% 2.1 mph N3.4 kmh N 3.0 mph4.8 kmh 30.37 in1028.4 mb 0.00 in0.0 mm 0.00 in0.0 mm 0.00 in0.0 mm
08:10 AM 42.3°F5.7°C 29.8°F-1.2°C 61% 1.9 mph N3.1 kmh N 4.0 mph6.4 kmh 30.36 in1028.1 mb 0.00 in0.0 mm 0.00 in0.0 mm 0.00 in0.0 mm
08:15 AM 42.6°F5.9°C 30.1°F-1.1°C 61% 0.6 mph N1.0 kmh N 4.0 mph6.4 kmh 30.36 in1028.1 mb 0.00 in0.0 mm 0.00 in0.0 mm 0.00 in0.0 mm
08:20 AM 42.7°F5.9°C 29.8°F-1.2°C 60% 0.6 mph N1.0 kmh N 3.0 mph4.8 kmh 30.37 in1028.4 mb 0.00 in0.0 mm 0.00 in0.0 mm 0.00 in0.0 mm
08:25 AM 43.0°F6.1°C 30.1°F-1.1°C 60% 1.2 mph N1.9 kmh N 3.0 mph4.8 kmh 30.37 in1028.4 mb 0.00 in0.0 mm 0.00 in0.0 mm 0.00 in0.0 mm
08:30 AM 43.1°F6.2°C 30.2°F-1.0°C 60% 1.8 mph NE2.9 kmh NE 4.0 mph6.4 kmh 30.37 in1028.4 mb 0.00 in0.0 mm 0.00 in0.0 mm 0.00 in0.0 mm
08:35 AM 43.2°F6.2°C 30.3°F-0.9°C 60% 0.6 mph NE1.0 kmh NE 4.0 mph6.4 kmh 30.37 in1028.4 mb 0.00 in0.0 mm 0.00 in0.0 mm 0.00 in0.0 mm
08:40 AM 43.4°F6.3°C 30.5°F-0.8°C 60% 0.5 mph NE0.8 kmh NE 2.0 mph3.2 kmh 30.37 in1028.4 mb 0.00 in0.0 mm 0.00 in0.0 mm 0.00 in0.0 mm
08:45 AM 43.7°F6.5°C 30.3°F-0.9°C 59% 0.7 mph NE1.1 kmh NE 3.0 mph4.8 kmh 30.37 in1028.4 mb 0.00 in0.0 mm 0.00 in0.0 mm 0.00 in0.0 mm
08:50 AM 44.0°F6.7°C 30.6°F-0.8°C 59% 1.4 mph NE2.3 kmh NE 3.0 mph4.8 kmh 30.37 in1028.4 mb 0.00 in0.0 mm 0.00 in0.0 mm 0.00 in0.0 mm
08:55 AM 45.0°F7.2°C 31.1°F-0.5°C 58% 0.3 mph NE0.5 kmh NE 3.0 mph4.8 kmh 30.37 in1028.4 mb 0.00 in0.0 mm 0.00 in0.0 mm 0.00 in0.0 mm
09:00 AM 45.2°F7.3°C 30.9°F-0.6°C 57% 0.5 mph ENE0.8 kmh ENE 2.0 mph3.2 kmh 30.37 in1028.4 mb 0.00 in0.0 mm 0.00 in0.0 mm 0.00 in0.0 mm
09:05 AM 45.5°F7.5°C 31.6°F-0.2°C 58% 0.5 mph SE0.8 kmh SE 2.0 mph3.2 kmh 30.37 in1028.4 mb 0.00 in0.0 mm 0.00 in0.0 mm 0.00 in0.0 mm
09:10 AM 46.0°F7.8°C 31.6°F-0.2°C 57% 0.6 mph S1.0 kmh S 2.0 mph3.2 kmh 30.37 in1028.4 mb 0.00 in0.0 mm 0.00 in0.0 mm 0.00 in0.0 mm
09:15 AM 46.4°F8.0°C 31.1°F-0.5°C 55% 0.9 mph SSE1.4 kmh SSE 3.0 mph4.8 kmh 30.37 in1028.4 mb 0.00 in0.0 mm 0.00 in0.0 mm 0.00 in0.0 mm
09:20 AM 46.9°F8.3°C 31.1°F-0.5°C 54% 1.8 mph S2.9 kmh S 4.0 mph6.4 kmh 30.37 in1028.4 mb 0.00 in0.0 mm 0.00 in0.0 mm 0.00 in0.0 mm
09:25 AM 47.3°F8.5°C 31.5°F-0.3°C 54% 2.5 mph S4.0 kmh S 5.0 mph8.0 kmh 30.36 in1028.1 mb 0.00 in0.0 mm 0.00 in0.0 mm 0.00 in0.0 mm
09:30 AM 47.7°F8.7°C 30.9°F-0.6°C 52% 2.2 mph S3.5 kmh S 6.0 mph9.7 kmh 30.36 in1028.1 mb 0.00 in0.0 mm 0.00 in0.0 mm 0.00 in0.0 mm
09:35 AM 47.4°F8.6°C 30.2°F-1.0°C 51% 2.9 mph S4.7 kmh S 6.0 mph9.7 kmh 30.36 in1028.1 mb 0.00 in0.0 mm 0.00 in0.0 mm 0.00 in0.0 mm
09:40 AM 47.4°F8.6°C 30.7°F-0.7°C 52% 3.7 mph S6.0 kmh S 7.0 mph11.3 kmh 30.36 in1028.1 mb 0.00 in0.0 mm 0.00 in0.0 mm 0.00 in0.0 mm
09:45 AM 47.8°F8.8°C 31.0°F-0.6°C 52% 2.1 mph S3.4 kmh S 7.0 mph11.3 kmh 30.36 in1028.1 mb 0.00 in0.0 mm 0.00 in0.0 mm 0.00 in0.0 mm
09:50 AM 47.9°F8.8°C 30.2°F-1.0°C 50% 3.0 mph S4.8 kmh S 5.0 mph8.0 kmh 30.35 in1027.8 mb 0.00 in0.0 mm 0.00 in0.0 mm 0.00 in0.0 mm
09:55 AM 47.8°F8.8°C 29.1°F-1.6°C 48% 3.6 mph S5.8 kmh S 6.0 mph9.7 kmh 30.35 in1027.8 mb 0.00 in0.0 mm 0.00 in0.0 mm 0.00 in0.0 mm
10:00 AM 47.6°F8.7°C 28.9°F-1.7°C 48% 3.8 mph S6.1 kmh S 7.0 mph11.3 kmh 30.35 in1027.8 mb 0.00 in0.0 mm 0.00 in0.0 mm 0.00 in0.0 mm
10:05 AM 47.5°F8.6°C 29.8°F-1.2°C 50% 3.4 mph SSW5.5 kmh SSW 7.0 mph11.3 kmh 30.36 in1028.1 mb 0.00 in0.0 mm 0.00 in0.0 mm 0.00 in0.0 mm
10:10 AM 47.5°F8.6°C 29.8°F-1.2°C 50% 2.9 mph SSW4.7 kmh SSW 5.0 mph8.0 kmh 30.36 in1028.1 mb 0.00 in0.0 mm 0.00 in0.0 mm 0.00 in0.0 mm
10:15 AM 47.6°F8.7°C 30.4°F-0.9°C 51% 2.4 mph SSW3.9 kmh SSW 5.0 mph8.0 kmh 30.35 in1027.8 mb 0.00 in0.0 mm 0.00 in0.0 mm 0.00 in0.0 mm
10:20 AM 49.3°F9.6°C 32.4°F0.2°C 52% 2.0 mph SW3.2 kmh SW 6.0 mph9.7 kmh 30.36 in1028.1 mb 0.00 in0.0 mm 0.00 in0.0 mm 0.00 in0.0 mm
10:25 AM 48.6°F9.2°C 30.8°F-0.7°C 50% 2.3 mph SW3.7 kmh SW 6.0 mph9.7 kmh 30.36 in1028.1 mb 0.00 in0.0 mm 0.00 in0.0 mm 0.00 in0.0 mm
10:30 AM 49.0°F9.4°C 31.7°F-0.2°C 51% 3.6 mph SSW5.8 kmh SSW 9.0 mph14.5 kmh 30.36 in1028.1 mb 0.00 in0.0 mm 0.00 in0.0 mm 0.00 in0.0 mm
10:35 AM 49.5°F9.7°C 30.6°F-0.8°C 48% 2.4 mph SW3.9 kmh SW 9.0 mph14.5 kmh 30.36 in1028.1 mb 0.00 in0.0 mm 0.00 in0.0 mm 0.00 in0.0 mm
10:40 AM 49.4°F9.7°C 30.5°F-0.8°C 48% 3.5 mph WSW5.6 kmh WSW 6.0 mph9.7 kmh 30.36 in1028.1 mb 0.00 in0.0 mm 0.00 in0.0 mm 0.00 in0.0 mm
10:45 AM 49.1°F9.5°C 30.8°F-0.7°C 49% 3.1 mph SW5.0 kmh SW 6.0 mph9.7 kmh 30.36 in1028.1 mb 0.00 in0.0 mm 0.00 in0.0 mm 0.00 in0.0 mm
10:50 AM 49.3°F9.6°C 31.0°F-0.6°C 49% 2.6 mph SW4.2 kmh SW 6.0 mph9.7 kmh 30.36 in1028.1 mb 0.00 in0.0 mm 0.00 in0.0 mm 0.00 in0.0 mm
10:55 AM 48.9°F9.4°C 31.1°F-0.5°C 50% 3.3 mph SSW5.3 kmh SSW 7.0 mph11.3 kmh 30.36 in1028.1 mb 0.00 in0.0 mm 0.00 in0.0 mm 0.00 in0.0 mm
11:00 AM 49.8°F9.9°C 30.9°F-0.6°C 48% 1.9 mph SW3.1 kmh SW 7.0 mph11.3 kmh 30.36 in1028.1 mb 0.00 in0.0 mm 0.00 in0.0 mm 0.00 in0.0 mm
11:05 AM 50.5°F10.3°C 31.0°F-0.6°C 47% 3.1 mph W5.0 kmh W 7.0 mph11.3 kmh 30.37 in1028.4 mb 0.00 in0.0 mm 0.00 in0.0 mm 0.00 in0.0 mm
11:10 AM 49.9°F9.9°C 31.5°F-0.3°C 49% 1.6 mph SW2.6 kmh SW 7.0 mph11.3 kmh 30.36 in1028.1 mb 0.00 in0.0 mm 0.00 in0.0 mm 0.00 in0.0 mm
11:15 AM 50.0°F10.0°C 31.1°F-0.5°C 48% 1.6 mph WNW2.6 kmh WNW 5.0 mph8.0 kmh 30.36 in1028.1 mb 0.00 in0.0 mm 0.00 in0.0 mm 0.00 in0.0 mm
11:20 AM 50.4°F10.2°C 31.5°F-0.3°C 48% 2.2 mph SW3.5 kmh SW 5.0 mph8.0 kmh 30.36 in1028.1 mb 0.00 in0.0 mm 0.00 in0.0 mm 0.00 in0.0 mm
11:25 AM 50.4°F10.2°C 30.9°F-0.6°C 47% 2.6 mph WSW4.2 kmh WSW 6.0 mph9.7 kmh 30.36 in1028.1 mb 0.00 in0.0 mm 0.00 in0.0 mm 0.00 in0.0 mm
11:30 AM 50.5°F10.3°C 31.0°F-0.6°C 47% 2.2 mph SW3.5 kmh SW 6.0 mph9.7 kmh 30.35 in1027.8 mb 0.00 in0.0 mm 0.00 in0.0 mm 0.00 in0.0 mm
11:35 AM 50.5°F10.3°C 30.0°F-1.1°C 45% 2.8 mph WSW4.5 kmh WSW 6.0 mph9.7 kmh 30.35 in1027.8 mb 0.00 in0.0 mm 0.00 in0.0 mm 0.00 in0.0 mm
11:40 AM 50.5°F10.3°C 30.0°F-1.1°C 45% 3.3 mph W5.3 kmh W 7.0 mph11.3 kmh 30.35 in1027.8 mb 0.00 in0.0 mm 0.00 in0.0 mm 0.00 in0.0 mm
11:45 AM 50.9°F10.5°C 30.3°F-0.9°C 45% 1.6 mph WSW2.6 kmh WSW 7.0 mph11.3 kmh 30.35 in1027.8 mb 0.00 in0.0 mm 0.00 in0.0 mm 0.00 in0.0 mm
11:50 AM 51.2°F10.7°C 31.1°F-0.5°C 46% 1.7 mph SSW2.7 kmh SSW 5.0 mph8.0 kmh 30.34 in1027.4 mb 0.00 in0.0 mm 0.00 in0.0 mm 0.00 in0.0 mm
11:55 AM 51.3°F10.7°C 30.1°F-1.1°C 44% 3.0 mph SSW4.8 kmh SSW 8.0 mph12.9 kmh 30.34 in1027.4 mb 0.00 in0.0 mm 0.00 in0.0 mm 0.00 in0.0 mm
12:00 PM 51.6°F10.9°C 31.0°F-0.6°C 45% 4.0 mph S6.4 kmh S 8.0 mph12.9 kmh 30.34 in1027.4 mb 0.00 in0.0 mm 0.00 in0.0 mm 0.00 in0.0 mm
12:05 PM 51.9°F11.1°C 30.7°F-0.7°C 44% 2.7 mph SSW4.3 kmh SSW 7.0 mph11.3 kmh 30.34 in1027.4 mb 0.00 in0.0 mm 0.00 in0.0 mm 0.00 in0.0 mm
12:10 PM 51.6°F10.9°C 30.4°F-0.9°C 44% 3.2 mph SSW5.1 kmh SSW 7.0 mph11.3 kmh 30.33 in1027.1 mb 0.00 in0.0 mm 0.00 in0.0 mm 0.00 in0.0 mm
12:15 PM 51.6°F10.9°C 30.4°F-0.9°C 44% 2.6 mph SW4.2 kmh SW 7.0 mph11.3 kmh 30.33 in1027.1 mb 0.00 in0.0 mm 0.00 in0.0 mm 0.00 in0.0 mm
12:20 PM 51.7°F10.9°C 29.4°F-1.4°C 42% 3.3 mph SW5.3 kmh SW 6.0 mph9.7 kmh 30.33 in1027.1 mb 0.00 in0.0 mm 0.00 in0.0 mm 0.00 in0.0 mm
12:25 PM 53.6°F12.0°C 30.5°F-0.8°C 41% 3.9 mph WSW6.3 kmh WSW 8.0 mph12.9 kmh 30.33 in1027.1 mb 0.00 in0.0 mm 0.00 in0.0 mm 0.00 in0.0 mm
12:30 PM 53.7°F12.1°C 28.1°F-2.2°C 37% 4.4 mph W7.1 kmh W 8.0 mph12.9 kmh 30.32 in1026.8 mb 0.00 in0.0 mm 0.00 in0.0 mm 0.00 in0.0 mm
12:35 PM 54.1°F12.3°C 31.5°F-0.3°C 42% 4.1 mph W6.6 kmh W 8.0 mph12.9 kmh 30.32 in1026.8 mb 0.00 in0.0 mm 0.00 in0.0 mm 0.00 in0.0 mm
12:40 PM 54.6°F12.6°C 32.0°F0.0°C 42% 3.0 mph SSW4.8 kmh SSW 8.0 mph12.9 kmh 30.32 in1026.8 mb 0.00 in0.0 mm 0.00 in0.0 mm 0.00 in0.0 mm
12:45 PM 53.9°F12.2°C 30.1°F-1.1°C 40% 3.1 mph SW5.0 kmh SW 7.0 mph11.3 kmh 30.32 in1026.8 mb 0.00 in0.0 mm 0.00 in0.0 mm 0.00 in0.0 mm
12:50 PM 54.2°F12.3°C 31.0°F-0.6°C 41% 3.4 mph WSW5.5 kmh WSW 7.0 mph11.3 kmh 30.32 in1026.8 mb 0.00 in0.0 mm 0.00 in0.0 mm 0.00 in0.0 mm
12:55 PM 54.9°F12.7°C 31.0°F-0.6°C 40% 3.3 mph WSW5.3 kmh WSW 7.0 mph11.3 kmh 30.31 in1026.4 mb 0.00 in0.0 mm 0.00 in0.0 mm 0.00 in0.0 mm
01:00 PM 54.8°F12.7°C 32.2°F0.1°C 42% 2.5 mph S4.0 kmh S 7.0 mph11.3 kmh 30.31 in1026.4 mb 0.00 in0.0 mm 0.00 in0.0 mm 0.00 in0.0 mm
01:05 PM 55.0°F12.8°C 29.9°F-1.2°C 38% 4.1 mph W6.6 kmh W 7.0 mph11.3 kmh 30.31 in1026.4 mb 0.00 in0.0 mm 0.00 in0.0 mm 0.00 in0.0 mm
01:10 PM 55.3°F12.9°C 27.4°F-2.6°C 34% 3.9 mph WSW6.3 kmh WSW 8.0 mph12.9 kmh 30.30 in1026.1 mb 0.00 in0.0 mm 0.00 in0.0 mm 0.00 in0.0 mm
01:15 PM 55.5°F13.1°C 30.3°F-0.9°C 38% 1.4 mph WSW2.3 kmh WSW 8.0 mph12.9 kmh 30.30 in1026.1 mb 0.00 in0.0 mm 0.00 in0.0 mm 0.00 in0.0 mm
01:20 PM 56.0°F13.3°C 30.1°F-1.1°C 37% 3.9 mph W6.3 kmh W 7.0 mph11.3 kmh 30.30 in1026.1 mb 0.00 in0.0 mm 0.00 in0.0 mm 0.00 in0.0 mm
01:25 PM 54.7°F12.6°C 28.9°F-1.7°C 37% 1.7 mph SW2.7 kmh SW 7.0 mph11.3 kmh 30.30 in1026.1 mb 0.00 in0.0 mm 0.00 in0.0 mm 0.00 in0.0 mm
01:30 PM 55.4°F13.0°C 29.6°F-1.3°C 37% 3.0 mph SSW4.8 kmh SSW 6.0 mph9.7 kmh 30.30 in1026.1 mb 0.00 in0.0 mm 0.00 in0.0 mm 0.00 in0.0 mm
01:35 PM 55.6°F13.1°C 29.1°F-1.6°C 36% 3.7 mph S6.0 kmh S 7.0 mph11.3 kmh 30.29 in1025.7 mb 0.00 in0.0 mm 0.00 in0.0 mm 0.00 in0.0 mm
01:40 PM 55.3°F12.9°C 29.5°F-1.4°C 37% 3.1 mph S5.0 kmh S 7.0 mph11.3 kmh 30.29 in1025.7 mb 0.00 in0.0 mm 0.00 in0.0 mm 0.00 in0.0 mm
01:45 PM 55.8°F13.2°C 29.3°F-1.5°C 36% 3.0 mph NW4.8 kmh NW 8.0 mph12.9 kmh 30.29 in1025.7 mb 0.00 in0.0 mm 0.00 in0.0 mm 0.00 in0.0 mm
01:50 PM 56.1°F13.4°C 26.7°F-2.9°C 32% 3.1 mph N5.0 kmh N 8.0 mph12.9 kmh 30.28 in1025.4 mb 0.00 in0.0 mm 0.00 in0.0 mm 0.00 in0.0 mm
01:55 PM 57.0°F13.9°C 30.3°F-0.9°C 36% 3.4 mph N5.5 kmh N 7.0 mph11.3 kmh 30.28 in1025.4 mb 0.00 in0.0 mm 0.00 in0.0 mm 0.00 in0.0 mm
02:00 PM 56.4°F13.6°C 31.8°F-0.1°C 39% 3.7 mph WNW6.0 kmh WNW 8.0 mph12.9 kmh 30.28 in1025.4 mb 0.00 in0.0 mm 0.00 in0.0 mm 0.00 in0.0 mm
02:05 PM 56.0°F13.3°C 28.7°F-1.8°C 35% 2.3 mph SSW3.7 kmh SSW 8.0 mph12.9 kmh 30.28 in1025.4 mb 0.00 in0.0 mm 0.00 in0.0 mm 0.00 in0.0 mm
02:10 PM 57.2°F14.0°C 30.5°F-0.8°C 36% 3.4 mph W5.5 kmh W 6.0 mph9.7 kmh 30.28 in1025.4 mb 0.00 in0.0 mm 0.00 in0.0 mm 0.00 in0.0 mm
02:15 PM 55.7°F13.2°C 26.3°F-3.2°C 32% 2.1 mph N3.4 kmh N 6.0 mph9.7 kmh 30.27 in1025.1 mb 0.00 in0.0 mm 0.00 in0.0 mm 0.00 in0.0 mm
02:20 PM 57.3°F14.1°C 28.5°F-1.9°C 33% 1.8 mph E2.9 kmh E 5.0 mph8.0 kmh 30.27 in1025.1 mb 0.00 in0.0 mm 0.00 in0.0 mm 0.00 in0.0 mm
02:25 PM 58.6°F14.8°C 28.8°F-1.8°C 32% 1.5 mph ENE2.4 kmh ENE 5.0 mph8.0 kmh 30.26 in1024.7 mb 0.00 in0.0 mm 0.00 in0.0 mm 0.00 in0.0 mm
02:30 PM 58.0°F14.4°C 27.5°F-2.5°C 31% 1.7 mph E2.7 kmh E 4.0 mph6.4 kmh 30.26 in1024.7 mb 0.00 in0.0 mm 0.00 in0.0 mm 0.00 in0.0 mm
02:35 PM 57.5°F14.2°C 27.1°F-2.7°C 31% 1.9 mph NNW3.1 kmh NNW 4.0 mph6.4 kmh 30.26 in1024.7 mb 0.00 in0.0 mm 0.00 in0.0 mm 0.00 in0.0 mm
02:40 PM 58.1°F14.5°C 26.8°F-2.9°C 30% 4.8 mph N7.7 kmh N 12.0 mph19.3 kmh 30.25 in1024.4 mb 0.00 in0.0 mm 0.00 in0.0 mm 0.00 in0.0 mm
02:45 PM 58.4°F14.7°C 26.3°F-3.2°C 29% 3.7 mph N6.0 kmh N 12.0 mph19.3 kmh 30.25 in1024.4 mb 0.00 in0.0 mm 0.00 in0.0 mm 0.00 in0.0 mm
02:50 PM 59.1°F15.1°C 29.3°F-1.5°C 32% 3.2 mph NE5.1 kmh NE 9.0 mph14.5 kmh 30.25 in1024.4 mb 0.00 in0.0 mm 0.00 in0.0 mm 0.00 in0.0 mm
02:55 PM 59.0°F15.0°C 28.4°F-2.0°C 31% 3.4 mph ESE5.5 kmh ESE 9.0 mph14.5 kmh 30.25 in1024.4 mb 0.00 in0.0 mm 0.00 in0.0 mm 0.00 in0.0 mm
03:00 PM 59.2°F15.1°C 27.0°F-2.8°C 29% 2.4 mph ENE3.9 kmh ENE 8.0 mph12.9 kmh 30.24 in1024.0 mb 0.00 in0.0 mm 0.00 in0.0 mm 0.00 in0.0 mm
03:05 PM 59.2°F15.1°C 27.8°F-2.3°C 30% 2.7 mph NW4.3 kmh NW 7.0 mph11.3 kmh 30.24 in1024.0 mb 0.00 in0.0 mm 0.00 in0.0 mm 0.00 in0.0 mm
03:10 PM 58.7°F14.8°C 24.8°F-4.0°C 27% 3.9 mph W6.3 kmh W 9.0 mph14.5 kmh 30.24 in1024.0 mb 0.00 in0.0 mm 0.00 in0.0 mm 0.00 in0.0 mm
03:15 PM 58.7°F14.8°C 25.7°F-3.5°C 28% 2.1 mph SW3.4 kmh SW 9.0 mph14.5 kmh 30.23 in1023.7 mb 0.00 in0.0 mm 0.00 in0.0 mm 0.00 in0.0 mm
03:20 PM 59.0°F15.0°C 25.1°F-3.8°C 27% 2.3 mph SSW3.7 kmh SSW 6.0 mph9.7 kmh 30.23 in1023.7 mb 0.00 in0.0 mm 0.00 in0.0 mm 0.00 in0.0 mm
03:25 PM 59.1°F15.1°C 26.0°F-3.3°C 28% 1.7 mph NE2.7 kmh NE 5.0 mph8.0 kmh 30.23 in1023.7 mb 0.00 in0.0 mm 0.00 in0.0 mm 0.00 in0.0 mm
03:30 PM 58.6°F14.8°C 25.6°F-3.6°C 28% 1.2 mph SE1.9 kmh SE 3.0 mph4.8 kmh 30.23 in1023.7 mb 0.00 in0.0 mm 0.00 in0.0 mm 0.00 in0.0 mm
03:35 PM 58.9°F14.9°C 22.2°F-5.4°C 24% 3.1 mph NW5.0 kmh NW 7.0 mph11.3 kmh 30.22 in1023.4 mb 0.00 in0.0 mm 0.00 in0.0 mm 0.00 in0.0 mm
03:40 PM 58.4°F14.7°C 24.6°F-4.1°C 27% 3.2 mph NW5.1 kmh NW 11.0 mph17.7 kmh 30.22 in1023.4 mb 0.00 in0.0 mm 0.00 in0.0 mm 0.00 in0.0 mm
03:45 PM 57.6°F14.2°C 22.0°F-5.6°C 25% 3.3 mph NW5.3 kmh NW 11.0 mph17.7 kmh 30.22 in1023.4 mb 0.00 in0.0 mm 0.00 in0.0 mm 0.00 in0.0 mm
03:50 PM 58.8°F14.9°C 22.1°F-5.5°C 24% 4.4 mph NNW7.1 kmh NNW 10.0 mph16.1 kmh 30.22 in1023.4 mb 0.00 in0.0 mm 0.00 in0.0 mm 0.00 in0.0 mm
03:55 PM 59.9°F15.5°C 22.0°F-5.6°C 23% 2.8 mph SW4.5 kmh SW 10.0 mph16.1 kmh 30.22 in1023.4 mb 0.00 in0.0 mm 0.00 in0.0 mm 0.00 in0.0 mm
04:00 PM 60.5°F15.8°C 22.5°F-5.3°C 23% 5.3 mph WNW8.5 kmh WNW 9.0 mph14.5 kmh 30.21 in1023.0 mb 0.00 in0.0 mm 0.00 in0.0 mm 0.00 in0.0 mm
04:05 PM 60.1°F15.6°C 24.2°F-4.3°C 25% 2.9 mph WNW4.7 kmh WNW 9.0 mph14.5 kmh 30.21 in1023.0 mb 0.00 in0.0 mm 0.00 in0.0 mm 0.00 in0.0 mm
04:10 PM 60.1°F15.6°C 24.2°F-4.3°C 25% 3.8 mph NNW6.1 kmh NNW 8.0 mph12.9 kmh 30.21 in1023.0 mb 0.00 in0.0 mm 0.00 in0.0 mm 0.00 in0.0 mm
04:15 PM 59.8°F15.4°C 19.8°F-6.8°C 21% 2.9 mph W4.7 kmh W 8.0 mph12.9 kmh 30.21 in1023.0 mb 0.00 in0.0 mm 0.00 in0.0 mm 0.00 in0.0 mm
04:20 PM 59.6°F15.3°C 20.7°F-6.3°C 22% 4.4 mph NW7.1 kmh NW 9.0 mph14.5 kmh 30.21 in1023.0 mb 0.00 in0.0 mm 0.00 in0.0 mm 0.00 in0.0 mm
04:25 PM 59.8°F15.4°C 19.8°F-6.8°C 21% 3.4 mph W5.5 kmh W 9.0 mph14.5 kmh 30.20 in1022.7 mb 0.00 in0.0 mm 0.00 in0.0 mm 0.00 in0.0 mm
04:30 PM 59.8°F15.4°C 21.9°F-5.6°C 23% 4.2 mph NNW6.8 kmh NNW 8.0 mph12.9 kmh 30.20 in1022.7 mb 0.00 in0.0 mm 0.00 in0.0 mm 0.00 in0.0 mm
04:35 PM 60.2°F15.7°C 20.1°F-6.6°C 21% 4.0 mph NW6.4 kmh NW 8.0 mph12.9 kmh 30.20 in1022.7 mb 0.00 in0.0 mm 0.00 in0.0 mm 0.00 in0.0 mm
04:40 PM 59.9°F15.5°C 19.9°F-6.7°C 21% 2.1 mph WNW3.4 kmh WNW 8.0 mph12.9 kmh 30.20 in1022.7 mb 0.00 in0.0 mm 0.00 in0.0 mm 0.00 in0.0 mm
04:45 PM 59.9°F15.5°C 24.0°F-4.4°C 25% 2.4 mph WSW3.9 kmh WSW 6.0 mph9.7 kmh 30.20 in1022.7 mb 0.00 in0.0 mm 0.00 in0.0 mm 0.00 in0.0 mm
04:50 PM 60.2°F15.7°C 25.2°F-3.8°C 26% 4.2 mph W6.8 kmh W 7.0 mph11.3 kmh 30.20 in1022.7 mb 0.00 in0.0 mm 0.00 in0.0 mm 0.00 in0.0 mm
04:55 PM 60.7°F15.9°C 20.5°F-6.4°C 21% 3.2 mph WNW5.1 kmh WNW 7.0 mph11.3 kmh 30.20 in1022.7 mb 0.00 in0.0 mm 0.00 in0.0 mm 0.00 in0.0 mm
05:00 PM 60.1°F15.6°C 24.2°F-4.3°C 25% 2.2 mph WSW3.5 kmh WSW 6.0 mph9.7 kmh 30.20 in1022.7 mb 0.00 in0.0 mm 0.00 in0.0 mm 0.00 in0.0 mm
05:05 PM 60.5°F15.8°C 28.9°F-1.7°C 30% 2.5 mph SW4.0 kmh SW 5.0 mph8.0 kmh 30.20 in1022.7 mb 0.00 in0.0 mm 0.00 in0.0 mm 0.00 in0.0 mm
05:10 PM 59.6°F15.3°C 28.1°F-2.2°C 30% 3.8 mph S6.1 kmh S 7.0 mph11.3 kmh 30.20 in1022.7 mb 0.00 in0.0 mm 0.00 in0.0 mm 0.00 in0.0 mm
05:15 PM 59.1°F15.1°C 29.3°F-1.5°C 32% 4.5 mph S7.2 kmh S 9.0 mph14.5 kmh 30.20 in1022.7 mb 0.00 in0.0 mm 0.00 in0.0 mm 0.00 in0.0 mm
05:20 PM 58.9°F14.9°C 28.3°F-2.1°C 31% 4.7 mph S7.6 kmh S 10.0 mph16.1 kmh 30.20 in1022.7 mb 0.00 in0.0 mm 0.00 in0.0 mm 0.00 in0.0 mm
05:25 PM 59.1°F15.1°C 27.7°F-2.4°C 30% 2.8 mph SSE4.5 kmh SSE 10.0 mph16.1 kmh 30.19 in1022.4 mb 0.00 in0.0 mm 0.00 in0.0 mm 0.00 in0.0 mm
05:30 PM 58.6°F14.8°C 27.3°F-2.6°C 30% 5.6 mph S9.0 kmh S 9.0 mph14.5 kmh 30.19 in1022.4 mb 0.00 in0.0 mm 0.00 in0.0 mm 0.00 in0.0 mm
05:35 PM 58.6°F14.8°C 28.8°F-1.8°C 32% 4.9 mph SSW7.9 kmh SSW 9.0 mph14.5 kmh 30.19 in1022.4 mb 0.00 in0.0 mm 0.00 in0.0 mm 0.00 in0.0 mm
05:40 PM 59.2°F15.1°C 28.6°F-1.9°C 31% 4.5 mph S7.2 kmh S 10.0 mph16.1 kmh 30.19 in1022.4 mb 0.00 in0.0 mm 0.00 in0.0 mm 0.00 in0.0 mm
05:45 PM 58.9°F14.9°C 29.9°F-1.2°C 33% 5.7 mph S9.2 kmh S 12.0 mph19.3 kmh 30.19 in1022.4 mb 0.00 in0.0 mm 0.00 in0.0 mm 0.00 in0.0 mm
05:50 PM 59.1°F15.1°C 29.3°F-1.5°C 32% 4.6 mph S7.4 kmh S 12.0 mph19.3 kmh 30.19 in1022.4 mb 0.00 in0.0 mm 0.00 in0.0 mm 0.00 in0.0 mm
05:55 PM 58.9°F14.9°C 29.9°F-1.2°C 33% 4.7 mph S7.6 kmh S 9.0 mph14.5 kmh 30.19 in1022.4 mb 0.00 in0.0 mm 0.00 in0.0 mm 0.00 in0.0 mm
06:00 PM 58.7°F14.8°C 28.9°F-1.7°C 32% 5.8 mph SSW9.3 kmh SSW 9.0 mph14.5 kmh 30.19 in1022.4 mb 0.00 in0.0 mm 0.00 in0.0 mm 0.00 in0.0 mm
06:05 PM 58.7°F14.8°C 29.7°F-1.3°C 33% 4.2 mph SSW6.8 kmh SSW 9.0 mph14.5 kmh 30.19 in1022.4 mb 0.00 in0.0 mm 0.00 in0.0 mm 0.00 in0.0 mm
06:10 PM 58.6°F14.8°C 30.3°F-0.9°C 34% 5.4 mph S8.7 kmh S 10.0 mph16.1 kmh 30.19 in1022.4 mb 0.00 in0.0 mm 0.00 in0.0 mm 0.00 in0.0 mm
06:15 PM 58.3°F14.6°C 29.3°F-1.5°C 33% 6.5 mph S10.5 kmh S 10.0 mph16.1 kmh 30.19 in1022.4 mb 0.00 in0.0 mm 0.00 in0.0 mm 0.00 in0.0 mm
06:20 PM 58.1°F14.5°C 29.9°F-1.2°C 34% 6.6 mph SSW10.6 kmh SSW 11.0 mph17.7 kmh 30.19 in1022.4 mb 0.00 in0.0 mm 0.00 in0.0 mm 0.00 in0.0 mm
06:25 PM 58.0°F14.4°C 30.5°F-0.8°C 35% 5.3 mph SSW8.5 kmh SSW 11.0 mph17.7 kmh 30.19 in1022.4 mb 0.00 in0.0 mm 0.00 in0.0 mm 0.00 in0.0 mm
06:30 PM 57.8°F14.3°C 29.6°F-1.3°C 34% 5.2 mph S8.4 kmh S 9.0 mph14.5 kmh 30.19 in1022.4 mb 0.00 in0.0 mm 0.00 in0.0 mm 0.00 in0.0 mm
06:35 PM 57.7°F14.3°C 30.2°F-1.0°C 35% 4.8 mph S7.7 kmh S 9.0 mph14.5 kmh 30.19 in1022.4 mb 0.00 in0.0 mm 0.00 in0.0 mm 0.00 in0.0 mm
06:40 PM 57.7°F14.3°C 29.5°F-1.4°C 34% 4.5 mph S7.2 kmh S 9.0 mph14.5 kmh 30.19 in1022.4 mb 0.00 in0.0 mm 0.00 in0.0 mm 0.00 in0.0 mm
06:45 PM 57.5°F14.2°C 30.1°F-1.1°C 35% 4.5 mph SSW7.2 kmh SSW 8.0 mph12.9 kmh 30.19 in1022.4 mb 0.00 in0.0 mm 0.00 in0.0 mm 0.00 in0.0 mm
06:50 PM 57.5°F14.2°C 29.4°F-1.4°C 34% 4.2 mph S6.8 kmh S 8.0 mph12.9 kmh 30.19 in1022.4 mb 0.00 in0.0 mm 0.00 in0.0 mm 0.00 in0.0 mm
06:55 PM 57.3°F14.1°C 29.9°F-1.2°C 35% 5.3 mph S8.5 kmh S 10.0 mph16.1 kmh 30.19 in1022.4 mb 0.00 in0.0 mm 0.00 in0.0 mm 0.00 in0.0 mm
07:00 PM 57.2°F14.0°C 31.2°F-0.4°C 37% 3.9 mph S6.3 kmh S 10.0 mph16.1 kmh 30.19 in1022.4 mb 0.00 in0.0 mm 0.00 in0.0 mm 0.00 in0.0 mm
07:05 PM 56.8°F13.8°C 29.4°F-1.4°C 35% 5.6 mph SSW9.0 kmh SSW 9.0 mph14.5 kmh 30.19 in1022.4 mb 0.00 in0.0 mm 0.00 in0.0 mm 0.00 in0.0 mm
07:10 PM 56.6°F13.7°C 30.0°F-1.1°C 36% 3.3 mph S5.3 kmh S 9.0 mph14.5 kmh 30.19 in1022.4 mb 0.00 in0.0 mm 0.00 in0.0 mm 0.00 in0.0 mm
07:15 PM 56.4°F13.6°C 29.8°F-1.2°C 36% 3.0 mph S4.8 kmh S 6.0 mph9.7 kmh 30.19 in1022.4 mb 0.00 in0.0 mm 0.00 in0.0 mm 0.00 in0.0 mm
07:20 PM 56.3°F13.5°C 30.4°F-0.9°C 37% 3.2 mph SSW5.1 kmh SSW 7.0 mph11.3 kmh 30.19 in1022.4 mb 0.00 in0.0 mm 0.00 in0.0 mm 0.00 in0.0 mm
07:25 PM 56.1°F13.4°C 30.8°F-0.7°C 38% 3.0 mph S4.8 kmh S 7.0 mph11.3 kmh 30.19 in1022.4 mb 0.00 in0.0 mm 0.00 in0.0 mm 0.00 in0.0 mm
07:30 PM 55.7°F13.2°C 30.5°F-0.8°C 38% 2.5 mph S4.0 kmh S 6.0 mph9.7 kmh 30.19 in1022.4 mb 0.00 in0.0 mm 0.00 in0.0 mm 0.00 in0.0 mm
07:35 PM 55.5°F13.1°C 31.0°F-0.6°C 39% 3.4 mph SSW5.5 kmh SSW 7.0 mph11.3 kmh 30.19 in1022.4 mb 0.00 in0.0 mm 0.00 in0.0 mm 0.00 in0.0 mm
07:40 PM 55.2°F12.9°C 30.7°F-0.7°C 39% 2.5 mph S4.0 kmh S 7.0 mph11.3 kmh 30.19 in1022.4 mb 0.00 in0.0 mm 0.00 in0.0 mm 0.00 in0.0 mm
07:45 PM 54.8°F12.7°C 30.9°F-0.6°C 40% 2.2 mph SSW3.5 kmh SSW 6.0 mph9.7 kmh 30.19 in1022.4 mb 0.00 in0.0 mm 0.00 in0.0 mm 0.00 in0.0 mm
07:50 PM 54.6°F12.6°C 31.4°F-0.3°C 41% 2.0 mph SSW3.2 kmh SSW 4.0 mph6.4 kmh 30.19 in1022.4 mb 0.00 in0.0 mm 0.00 in0.0 mm 0.00 in0.0 mm
07:55 PM 54.4°F12.4°C 31.2°F-0.4°C 41% 2.4 mph SSW3.9 kmh SSW 4.0 mph6.4 kmh 30.20 in1022.7 mb 0.00 in0.0 mm 0.00 in0.0 mm 0.00 in0.0 mm
08:00 PM 54.2°F12.3°C 31.0°F-0.6°C 41% 2.0 mph S3.2 kmh S 4.0 mph6.4 kmh 30.20 in1022.7 mb 0.00 in0.0 mm 0.00 in0.0 mm 0.00 in0.0 mm
08:05 PM 54.1°F12.3°C 31.5°F-0.3°C 42% 1.5 mph S2.4 kmh S 4.0 mph6.4 kmh 30.20 in1022.7 mb 0.00 in0.0 mm 0.00 in0.0 mm 0.00 in0.0 mm
08:10 PM 53.9°F12.2°C 31.3°F-0.4°C 42% 2.7 mph SSW4.3 kmh SSW 6.0 mph9.7 kmh 30.20 in1022.7 mb 0.00 in0.0 mm 0.00 in0.0 mm 0.00 in0.0 mm
08:15 PM 53.9°F12.2°C 31.9°F-0.1°C 43% 3.8 mph S6.1 kmh S 8.0 mph12.9 kmh 30.20 in1022.7 mb 0.00 in0.0 mm 0.00 in0.0 mm 0.00 in0.0 mm
08:20 PM 53.7°F12.1°C 32.3°F0.2°C 44% 4.1 mph S6.6 kmh S 8.0 mph12.9 kmh 30.20 in1022.7 mb 0.00 in0.0 mm 0.00 in0.0 mm 0.00 in0.0 mm
08:25 PM 53.6°F12.0°C 32.2°F0.1°C 44% 4.2 mph S6.8 kmh S 8.0 mph12.9 kmh 30.21 in1023.0 mb 0.00 in0.0 mm 0.00 in0.0 mm 0.00 in0.0 mm
08:30 PM 53.3°F11.8°C 32.5°F0.3°C 45% 4.3 mph SSW6.9 kmh SSW 8.0 mph12.9 kmh 30.21 in1023.0 mb 0.00 in0.0 mm 0.00 in0.0 mm 0.00 in0.0 mm
08:35 PM 53.0°F11.7°C 32.8°F0.4°C 46% 3.5 mph SSW5.6 kmh SSW 7.0 mph11.3 kmh 30.21 in1023.0 mb 0.00 in0.0 mm 0.00 in0.0 mm 0.00 in0.0 mm
08:40 PM 52.9°F11.6°C 32.7°F0.4°C 46% 3.6 mph S5.8 kmh S 6.0 mph9.7 kmh 30.21 in1023.0 mb 0.00 in0.0 mm 0.00 in0.0 mm 0.00 in0.0 mm
08:45 PM 52.6°F11.4°C 33.0°F0.6°C 47% 3.1 mph SSW5.0 kmh SSW 6.0 mph9.7 kmh 30.21 in1023.0 mb 0.00 in0.0 mm 0.00 in0.0 mm 0.00 in0.0 mm
08:50 PM 52.4°F11.3°C 32.8°F0.4°C 47% 2.7 mph SSW4.3 kmh SSW 6.0 mph9.7 kmh 30.22 in1023.4 mb 0.00 in0.0 mm 0.00 in0.0 mm 0.00 in0.0 mm
08:55 PM 52.3°F11.3°C 33.2°F0.7°C 48% 2.8 mph S4.5 kmh S 6.0 mph9.7 kmh 30.22 in1023.4 mb 0.00 in0.0 mm 0.00 in0.0 mm 0.00 in0.0 mm
09:00 PM 52.3°F11.3°C 33.2°F0.7°C 48% 3.3 mph SSW5.3 kmh SSW 7.0 mph11.3 kmh 30.22 in1023.4 mb 0.00 in0.0 mm 0.00 in0.0 mm 0.00 in0.0 mm
09:05 PM 52.3°F11.3°C 33.2°F0.7°C 48% 4.8 mph SSW7.7 kmh SSW 8.0 mph12.9 kmh 30.22 in1023.4 mb 0.00 in0.0 mm 0.00 in0.0 mm 0.00 in0.0 mm
09:10 PM 52.1°F11.2°C 33.5°F0.8°C 49% 2.7 mph SSW4.3 kmh SSW 8.0 mph12.9 kmh 30.22 in1023.4 mb 0.00 in0.0 mm 0.00 in0.0 mm 0.00 in0.0 mm
09:15 PM 51.8°F11.0°C 33.8°F1.0°C 50% 2.0 mph SSW3.2 kmh SSW 5.0 mph8.0 kmh 30.23 in1023.7 mb 0.00 in0.0 mm 0.00 in0.0 mm 0.00 in0.0 mm
09:20 PM 51.8°F11.0°C 33.3°F0.7°C 49% 3.2 mph SSW5.1 kmh SSW 7.0 mph11.3 kmh 30.23 in1023.7 mb 0.00 in0.0 mm 0.00 in0.0 mm 0.00 in0.0 mm
09:25 PM 51.8°F11.0°C 32.7°F0.4°C 48% 4.1 mph SSW6.6 kmh SSW 7.0 mph11.3 kmh 30.23 in1023.7 mb 0.00 in0.0 mm 0.00 in0.0 mm 0.00 in0.0 mm
09:30 PM 51.6°F10.9°C 33.1°F0.6°C 49% 3.2 mph SSW5.1 kmh SSW 7.0 mph11.3 kmh 30.24 in1024.0 mb 0.00 in0.0 mm 0.00 in0.0 mm 0.00 in0.0 mm
09:35 PM 51.4°F10.8°C 33.4°F0.8°C 50% 3.5 mph SSW5.6 kmh SSW 7.0 mph11.3 kmh 30.24 in1024.0 mb 0.00 in0.0 mm 0.00 in0.0 mm 0.00 in0.0 mm
09:40 PM 51.3°F10.7°C 33.3°F0.7°C 50% 2.8 mph SSW4.5 kmh SSW 7.0 mph11.3 kmh 30.25 in1024.4 mb 0.00 in0.0 mm 0.00 in0.0 mm 0.00 in0.0 mm
09:45 PM 51.2°F10.7°C 32.7°F0.4°C 49% 2.6 mph SSW4.2 kmh SSW 6.0 mph9.7 kmh 30.25 in1024.4 mb 0.00 in0.0 mm 0.00 in0.0 mm 0.00 in0.0 mm
09:50 PM 51.1°F10.6°C 33.1°F0.6°C 50% 2.0 mph SSW3.2 kmh SSW 5.0 mph8.0 kmh 30.25 in1024.4 mb 0.00 in0.0 mm 0.00 in0.0 mm 0.00 in0.0 mm
09:55 PM 51.0°F10.6°C 32.5°F0.3°C 49% 2.5 mph SW4.0 kmh SW 5.0 mph8.0 kmh 30.25 in1024.4 mb 0.00 in0.0 mm 0.00 in0.0 mm 0.00 in0.0 mm
10:00 PM 50.8°F10.4°C 32.8°F0.4°C 50% 1.6 mph SW2.6 kmh SW 5.0 mph8.0 kmh 30.25 in1024.4 mb 0.00 in0.0 mm 0.00 in0.0 mm 0.00 in0.0 mm
10:05 PM 50.6°F10.3°C 33.1°F0.6°C 51% 1.4 mph SSW2.3 kmh SSW 4.0 mph6.4 kmh 30.26 in1024.7 mb 0.00 in0.0 mm 0.00 in0.0 mm 0.00 in0.0 mm
10:10 PM 50.3°F10.2°C 32.9°F0.5°C 51% 1.2 mph SSW1.9 kmh SSW 3.0 mph4.8 kmh 30.26 in1024.7 mb 0.00 in0.0 mm 0.00 in0.0 mm 0.00 in0.0 mm
10:15 PM 50.1°F10.1°C 33.2°F0.7°C 52% 1.2 mph SW1.9 kmh SW 4.0 mph6.4 kmh 30.26 in1024.7 mb 0.00 in0.0 mm 0.00 in0.0 mm 0.00 in0.0 mm
10:20 PM 50.0°F10.0°C 33.1°F0.6°C 52% 0.8 mph SSW1.3 kmh SSW 4.0 mph6.4 kmh 30.26 in1024.7 mb 0.00 in0.0 mm 0.00 in0.0 mm 0.00 in0.0 mm
10:25 PM 49.8°F9.9°C 32.9°F0.5°C 52% 0.6 mph SW1.0 kmh SW 3.0 mph4.8 kmh 30.27 in1025.1 mb 0.00 in0.0 mm 0.00 in0.0 mm 0.00 in0.0 mm
10:30 PM 49.8°F9.9°C 32.4°F0.2°C 51% 1.8 mph SSW2.9 kmh SSW 4.0 mph6.4 kmh 30.27 in1025.1 mb 0.00 in0.0 mm 0.00 in0.0 mm 0.00 in0.0 mm
10:35 PM 49.7°F9.8°C 32.3°F0.2°C 51% 1.7 mph S2.7 kmh S 4.0 mph6.4 kmh 30.27 in1025.1 mb 0.00 in0.0 mm 0.00 in0.0 mm 0.00 in0.0 mm
10:40 PM 49.2°F9.6°C 32.3°F0.2°C 52% 1.0 mph S1.6 kmh S 4.0 mph6.4 kmh 30.27 in1025.1 mb 0.00 in0.0 mm 0.00 in0.0 mm 0.00 in0.0 mm
10:45 PM 49.2°F9.6°C 31.9°F-0.1°C 51% 1.6 mph SSW2.6 kmh SSW 3.0 mph4.8 kmh 30.27 in1025.1 mb 0.00 in0.0 mm 0.00 in0.0 mm 0.00 in0.0 mm
10:50 PM 49.1°F9.5°C 31.8°F-0.1°C 51% 0.9 mph SW1.4 kmh SW 3.0 mph4.8 kmh 30.27 in1025.1 mb 0.00 in0.0 mm 0.00 in0.0 mm 0.00 in0.0 mm
10:55 PM 48.9°F9.4°C 32.1°F0.1°C 52% 0.6 mph SW1.0 kmh SW 3.0 mph4.8 kmh 30.27 in1025.1 mb 0.00 in0.0 mm 0.00 in0.0 mm 0.00 in0.0 mm
11:00 PM 48.5°F9.2°C 31.7°F-0.2°C 52% 0.2 mph SW0.3 kmh SW 2.0 mph3.2 kmh 30.27 in1025.1 mb 0.00 in0.0 mm 0.00 in0.0 mm 0.00 in0.0 mm
11:05 PM 48.2°F9.0°C 31.9°F-0.1°C 53% 1.3 mph SW2.1 kmh SW 3.0 mph4.8 kmh 30.27 in1025.1 mb 0.00 in0.0 mm 0.00 in0.0 mm 0.00 in0.0 mm
11:10 PM 48.1°F8.9°C 31.8°F-0.1°C 53% 0.6 mph SW1.0 kmh SW 3.0 mph4.8 kmh 30.27 in1025.1 mb 0.00 in0.0 mm 0.00 in0.0 mm 0.00 in0.0 mm
11:15 PM 48.1°F8.9°C 31.8°F-0.1°C 53% 0.9 mph WSW1.4 kmh WSW 5.0 mph8.0 kmh 30.27 in1025.1 mb 0.00 in0.0 mm 0.00 in0.0 mm 0.00 in0.0 mm
11:20 PM 48.0°F8.9°C 31.7°F-0.2°C 53% 1.1 mph SW1.8 kmh SW 5.0 mph8.0 kmh 30.27 in1025.1 mb 0.00 in0.0 mm 0.00 in0.0 mm 0.00 in0.0 mm
11:25 PM 48.2°F9.0°C 31.9°F-0.1°C 53% 1.0 mph WSW1.6 kmh WSW 5.0 mph8.0 kmh 30.27 in1025.1 mb 0.00 in0.0 mm 0.00 in0.0 mm 0.00 in0.0 mm
11:30 PM 48.1°F8.9°C 31.8°F-0.1°C 53% 0.6 mph WSW1.0 kmh WSW 5.0 mph8.0 kmh 30.27 in1025.1 mb 0.00 in0.0 mm 0.00 in0.0 mm 0.00 in0.0 mm
11:35 PM 47.9°F8.8°C 31.6°F-0.2°C 53% 0.9 mph WSW1.4 kmh WSW 3.0 mph4.8 kmh 30.27 in1025.1 mb 0.00 in0.0 mm 0.00 in0.0 mm 0.00 in0.0 mm
11:40 PM 47.9°F8.8°C 31.6°F-0.2°C 53% 0.7 mph WSW1.1 kmh WSW 3.0 mph4.8 kmh 30.27 in1025.1 mb 0.00 in0.0 mm 0.00 in0.0 mm 0.00 in0.0 mm
11:45 PM 47.8°F8.8°C 31.5°F-0.3°C 53% 0.8 mph SW1.3 kmh SW 2.0 mph3.2 kmh 30.27 in1025.1 mb 0.00 in0.0 mm 0.00 in0.0 mm 0.00 in0.0 mm
11:50 PM 47.9°F8.8°C 31.6°F-0.2°C 53% 0.9 mph SW1.4 kmh SW 2.0 mph3.2 kmh 30.27 in1025.1 mb 0.00 in0.0 mm 0.00 in0.0 mm 0.00 in0.0 mm
11:55 PM 47.8°F8.8°C 31.5°F-0.3°C 53% 0.7 mph SW1.1 kmh SW 2.0 mph3.2 kmh 30.27 in1025.1 mb 0.00 in0.0 mm 0.00 in0.0 mm 0.00 in0.0 mm